createdAt,value
2023-02-13T00:00:51.231Z,90.23
2023-02-13T00:01:51.172Z,89.92
2023-02-13T00:02:51.166Z,89.31
2023-02-13T00:03:51.203Z,90.03
2023-02-13T00:04:51.160Z,90.23
2023-02-13T00:05:51.135Z,90.03
2023-02-13T00:06:51.111Z,89.42
2023-02-13T00:07:51.143Z,89.42
2023-02-13T00:08:51.118Z,89.21
2023-02-13T00:09:51.087Z,89.21
2023-02-13T00:10:51.125Z,89.51
2023-02-13T00:11:51.086Z,89.42
2023-02-13T00:12:51.055Z,89.42
2023-02-13T00:13:51.070Z,89.31
2023-02-13T00:14:51.067Z,89.62
2023-02-13T00:15:51.094Z,89.51
2023-02-13T00:16:51.011Z,89.83
2023-02-13T00:17:50.998Z,89.42
2023-02-13T00:18:51.053Z,89.00
2023-02-13T00:19:50.969Z,89.21
2023-02-13T00:20:51.002Z,89.00
2023-02-13T00:21:50.952Z,89.00
2023-02-13T00:22:50.943Z,89.42
2023-02-13T00:23:50.977Z,88.80
2023-02-13T00:24:50.929Z,88.59
2023-02-13T00:25:50.919Z,89.00
2023-02-13T00:26:50.905Z,88.80
2023-02-13T00:27:50.895Z,88.49
2023-02-13T00:28:50.872Z,88.39
2023-02-13T00:29:50.914Z,87.67
2023-02-13T00:30:50.972Z,87.53
2023-02-13T00:31:50.986Z,87.77
2023-02-13T00:32:50.834Z,87.84
2023-02-13T00:33:50.830Z,87.16
2023-02-13T00:34:50.837Z,87.63
2023-02-13T00:35:50.792Z,87.06
2023-02-13T00:36:50.794Z,87.26
2023-02-13T00:37:50.790Z,86.65
2023-02-13T00:38:50.770Z,86.96
2023-02-13T00:39:50.747Z,86.85
2023-02-13T00:40:50.778Z,85.83
2023-02-13T00:41:50.765Z,85.83
2023-02-13T00:42:50.731Z,85.72
2023-02-13T00:43:50.705Z,85.83
2023-02-13T00:44:50.747Z,85.93
2023-02-13T00:45:50.714Z,85.52
2023-02-13T00:46:50.738Z,85.83
2023-02-13T00:47:50.673Z,85.72
2023-02-13T00:48:50.660Z,85.31
2023-02-13T00:49:50.646Z,85.11
2023-02-13T00:50:50.663Z,85.31
2023-02-13T00:51:50.651Z,85.11
2023-02-13T00:52:50.618Z,84.64
2023-02-13T00:53:50.599Z,84.39
2023-02-13T00:54:50.618Z,84.23
2023-02-13T00:55:50.582Z,84.44
2023-02-13T00:56:50.567Z,84.39
2023-02-13T00:57:50.556Z,84.53
2023-02-13T00:58:50.581Z,84.03
2023-02-13T00:59:51.148Z,83.61
2023-02-13T01:00:50.526Z,83.68
2023-02-13T01:01:50.590Z,83.27
2023-02-13T01:02:50.529Z,83.31
2023-02-13T01:03:50.568Z,83.10
2023-02-13T01:04:50.481Z,83.10
2023-02-13T01:05:50.472Z,82.79
2023-02-13T01:06:50.489Z,82.96
2023-02-13T01:07:50.462Z,83.06
2023-02-13T01:08:50.438Z,83.17
2023-02-13T01:09:50.433Z,82.86
2023-02-13T01:10:50.421Z,82.28
2023-02-13T01:11:50.443Z,82.76
2023-02-13T01:12:50.406Z,82.76
2023-02-13T01:13:50.424Z,82.45
2023-02-13T01:14:50.383Z,82.04
2023-02-13T01:15:50.415Z,81.73
2023-02-13T01:16:50.355Z,81.84
2023-02-13T01:17:50.364Z,81.84
2023-02-13T01:18:50.379Z,81.57
2023-02-13T01:19:50.328Z,81.52
2023-02-13T01:20:50.328Z,81.77
2023-02-13T01:21:50.310Z,81.84
2023-02-13T01:22:50.291Z,81.67
2023-02-13T01:23:50.290Z,81.32
2023-02-13T01:24:50.307Z,81.43
2023-02-13T01:25:50.258Z,80.91
2023-02-13T01:26:50.261Z,80.91
2023-02-13T01:27:50.244Z,81.22
2023-02-13T01:28:50.228Z,81.12
2023-02-13T01:29:50.212Z,81.12
2023-02-13T01:30:50.294Z,81.01
2023-02-13T01:31:50.274Z,80.81
2023-02-13T01:33:04.801Z,81.26
2023-02-13T01:33:50.174Z,81.12
2023-02-13T01:34:50.168Z,81.05
2023-02-13T01:35:50.191Z,81.46
2023-02-13T01:36:50.166Z,81.94
2023-02-13T01:37:50.138Z,81.67
2023-02-13T01:38:50.161Z,81.63
2023-02-13T01:39:50.117Z,82.04
2023-02-13T01:40:50.096Z,81.94
2023-02-13T01:41:50.102Z,81.73
2023-02-13T01:42:50.074Z,81.63
2023-02-13T01:43:50.081Z,81.84
2023-02-13T01:44:50.089Z,81.73
2023-02-13T01:45:50.039Z,81.63
2023-02-13T01:46:50.088Z,81.73
2023-02-13T01:47:50.027Z,81.52
2023-02-13T01:48:50.047Z,81.73
2023-02-13T01:49:50.018Z,81.84
2023-02-13T01:54:21.087Z,81.32
2023-02-13T01:55:17.846Z,81.32
2023-02-13T01:56:17.837Z,81.12
2023-02-13T01:57:17.825Z,80.71
2023-02-13T01:58:17.808Z,81.84
2023-02-13T01:59:17.816Z,81.63
2023-02-13T02:00:17.810Z,81.32
2023-02-13T02:01:17.838Z,81.32
2023-02-13T02:02:17.906Z,81.52
2023-02-13T02:03:17.801Z,81.32
2023-02-13T02:04:17.784Z,81.84
2023-02-13T02:05:17.750Z,81.84
2023-02-13T02:06:17.720Z,81.94
2023-02-13T02:07:17.733Z,82.28
2023-02-13T02:08:17.699Z,82.45
2023-02-13T02:09:17.683Z,82.65
2023-02-13T02:21:53.565Z,83.20
2023-02-13T02:22:50.874Z,82.69
2023-02-13T02:23:50.836Z,82.90
2023-02-13T02:24:50.827Z,83.41
2023-02-13T02:25:50.802Z,83.72
2023-02-13T02:26:50.827Z,83.41
2023-02-13T02:27:50.844Z,83.72
2023-02-13T02:28:50.789Z,83.31
2023-02-13T02:29:50.772Z,83.10
2023-02-13T02:30:50.866Z,83.61
2023-02-13T02:31:50.854Z,82.96
2023-02-13T02:32:50.752Z,83.72
2023-02-13T02:33:50.723Z,83.72
2023-02-13T02:34:50.715Z,83.72
2023-02-13T02:35:50.697Z,83.72
2023-02-13T02:36:50.683Z,83.41
2023-02-13T02:37:50.716Z,83.92
2023-02-13T02:38:50.740Z,84.12
2023-02-13T02:39:50.655Z,83.61
2023-02-13T02:40:50.648Z,84.53
2023-02-13T02:41:50.637Z,84.33
2023-02-13T02:42:50.644Z,84.33
2023-02-13T02:43:50.674Z,84.03
2023-02-13T02:44:50.602Z,84.33
2023-02-13T02:45:50.595Z,84.23
2023-02-13T02:46:50.611Z,84.23
2023-02-13T02:47:50.582Z,84.12
2023-02-13T02:49:01.584Z,83.92
2023-02-13T02:49:50.541Z,83.98
2023-02-13T02:50:50.564Z,84.23
2023-02-13T02:51:50.513Z,84.03
2023-02-13T02:52:50.514Z,84.23
2023-02-13T02:53:50.544Z,84.03
2023-02-13T02:54:50.492Z,84.39
2023-02-13T02:55:50.472Z,83.92
2023-02-13T02:56:50.499Z,84.03
2023-02-13T02:57:50.457Z,84.53
2023-02-13T02:58:50.445Z,84.23
2023-02-13T02:59:50.457Z,84.03
2023-02-13T03:00:50.452Z,84.37
2023-02-13T03:01:50.418Z,84.78
2023-02-13T03:02:50.404Z,84.37
2023-02-13T03:03:50.463Z,85.19
2023-02-13T03:04:50.404Z,85.39
2023-02-13T03:05:50.364Z,85.56
2023-02-13T03:06:50.369Z,85.30
2023-02-13T03:07:50.351Z,85.30
2023-02-13T03:08:50.339Z,85.39
2023-02-13T03:09:50.358Z,85.25
2023-02-13T03:10:50.341Z,85.30
2023-02-13T03:11:50.322Z,85.19
2023-02-13T03:12:50.296Z,85.09
2023-02-13T03:13:50.279Z,85.36
2023-02-13T03:14:50.278Z,85.25
2023-02-13T03:15:50.278Z,85.15
2023-02-13T03:16:50.251Z,85.19
2023-02-13T03:17:50.241Z,85.15
2023-02-13T03:18:50.257Z,85.15
2023-02-13T03:19:50.213Z,84.95
2023-02-13T03:20:50.200Z,85.30
2023-02-13T03:21:50.194Z,85.36
2023-02-13T03:22:50.224Z,85.15
2023-02-13T03:23:50.177Z,85.36
2023-02-13T03:24:50.158Z,85.39
2023-02-13T03:25:50.178Z,85.30
2023-02-13T03:26:50.334Z,85.19
2023-02-13T03:27:50.124Z,85.09
2023-02-13T03:28:50.143Z,84.95
2023-02-13T03:29:50.141Z,84.99
2023-02-13T03:30:50.129Z,85.30
2023-02-13T03:31:50.137Z,85.15
2023-02-13T03:32:50.080Z,85.39
2023-02-13T03:33:50.063Z,85.39
2023-02-13T03:34:50.059Z,85.30
2023-02-13T03:35:50.068Z,85.30
2023-02-13T03:36:50.036Z,85.30
2023-02-13T03:37:50.030Z,85.50
2023-02-13T03:38:50.048Z,84.99
2023-02-13T03:39:50.031Z,84.58
2023-02-13T03:40:49.982Z,84.47
2023-02-13T03:41:50.024Z,84.68
2023-02-13T03:42:49.977Z,84.37
2023-02-13T03:43:49.983Z,84.44
2023-02-13T03:44:49.973Z,84.68
2023-02-13T03:45:49.995Z,84.64
2023-02-13T03:46:49.918Z,84.53
2023-02-13T03:47:49.918Z,84.47
2023-02-13T03:48:50.597Z,84.37
2023-02-13T03:49:49.896Z,84.37
2023-02-13T03:50:49.915Z,84.37
2023-02-13T03:51:49.876Z,84.37
2023-02-13T03:52:49.857Z,84.44
2023-02-13T03:53:49.847Z,84.53
2023-02-13T03:54:49.861Z,84.23
2023-02-13T03:55:49.822Z,84.37
2023-02-13T03:56:49.822Z,84.47
2023-02-13T03:57:49.826Z,84.33
2023-02-13T03:58:49.796Z,84.33
2023-02-13T03:59:49.814Z,84.27
2023-02-13T04:00:49.923Z,84.37
2023-02-13T04:01:49.758Z,84.23
2023-02-13T04:02:49.742Z,84.06
2023-02-13T04:03:49.733Z,84.47
2023-02-13T04:04:49.750Z,84.58
2023-02-13T04:05:49.758Z,84.23
2023-02-13T04:06:49.732Z,84.06
2023-02-13T04:07:49.707Z,84.03
2023-02-13T04:08:49.696Z,84.12
2023-02-13T04:09:49.672Z,84.03
2023-02-13T04:10:49.704Z,83.96
2023-02-13T04:11:49.654Z,83.96
2023-02-13T04:12:49.638Z,84.06
2023-02-13T04:13:49.657Z,84.27
2023-02-13T04:14:49.624Z,84.27
2023-02-13T04:15:49.608Z,83.76
2023-02-13T04:16:49.657Z,84.27
2023-02-13T04:17:49.588Z,84.17
2023-02-13T04:18:49.614Z,83.96
2023-02-13T04:19:49.577Z,83.61
2023-02-13T04:20:49.584Z,83.45
2023-02-13T04:21:49.619Z,83.76
2023-02-13T04:22:49.561Z,84.27
2023-02-13T04:23:49.550Z,83.55
2023-02-13T04:24:49.519Z,84.37
2023-02-13T04:25:49.508Z,84.47
2023-02-13T04:26:49.492Z,84.27
2023-02-13T04:27:49.517Z,84.06
2023-02-13T04:28:49.475Z,83.86
2023-02-13T04:29:49.481Z,84.06
2023-02-13T04:30:49.595Z,84.17
2023-02-13T04:31:49.565Z,84.06
2023-02-13T04:32:49.434Z,84.58
2023-02-13T04:33:49.449Z,84.41
2023-02-13T04:34:49.433Z,84.61
2023-02-13T04:35:49.408Z,84.10
2023-02-13T04:36:49.382Z,84.47
2023-02-13T04:37:49.371Z,84.61
2023-02-13T04:38:49.376Z,84.61
2023-02-13T04:39:49.383Z,84.61
2023-02-13T04:40:49.351Z,84.72
2023-02-13T04:41:49.329Z,84.31
2023-02-13T04:42:49.326Z,84.10
2023-02-13T04:43:49.340Z,84.00
2023-02-13T04:44:49.306Z,84.31
2023-02-13T04:45:49.349Z,84.31
2023-02-13T04:46:49.295Z,84.92
2023-02-13T04:47:49.278Z,84.82
2023-02-13T04:48:49.292Z,84.61
2023-02-13T04:49:49.285Z,84.58
2023-02-13T04:50:49.247Z,84.27
2023-02-13T04:51:49.240Z,84.47
2023-02-13T04:52:49.220Z,84.37
2023-02-13T04:53:49.211Z,84.17
2023-02-13T04:54:49.198Z,84.37
2023-02-13T04:55:49.209Z,84.27
2023-02-13T04:56:49.172Z,84.47
2023-02-13T04:57:49.160Z,83.90
2023-02-13T04:58:49.183Z,83.76
2023-02-13T04:59:49.136Z,83.69
2023-02-13T05:00:49.157Z,83.69
2023-02-13T05:01:49.252Z,83.28
2023-02-13T05:02:49.113Z,83.25
2023-02-13T05:03:49.102Z,82.87
2023-02-13T05:04:49.196Z,83.28
2023-02-13T05:05:49.073Z,83.45
2023-02-13T05:06:49.076Z,82.93
2023-02-13T05:07:49.062Z,82.22
2023-02-13T05:08:49.046Z,82.56
2023-02-13T05:09:49.034Z,82.53
2023-02-13T05:10:49.064Z,82.22
2023-02-13T05:11:49.047Z,82.22
2023-02-13T05:12:49.009Z,81.91
2023-02-13T05:13:48.997Z,81.91
2023-02-13T05:14:48.984Z,82.12
2023-02-13T05:15:49.014Z,81.64
2023-02-13T05:16:48.952Z,81.71
2023-02-13T05:17:48.990Z,81.71
2023-02-13T05:18:48.939Z,82.36
2023-02-13T05:19:48.922Z,81.13
2023-02-13T05:20:48.939Z,81.29
2023-02-13T05:21:48.914Z,81.34
2023-02-13T05:22:48.921Z,80.88
2023-02-13T05:23:48.875Z,81.50
2023-02-13T05:24:48.901Z,81.71
2023-02-13T05:25:48.859Z,81.71
2023-02-13T05:26:48.851Z,81.29
2023-02-13T05:27:48.840Z,81.29
2023-02-13T05:28:48.833Z,81.09
2023-02-13T05:29:48.834Z,80.88
2023-02-13T05:30:48.882Z,80.37
2023-02-13T05:31:48.964Z,80.58
2023-02-13T05:32:48.797Z,80.88
2023-02-13T05:33:48.848Z,80.68
2023-02-13T05:34:48.820Z,81.09
2023-02-13T05:35:48.755Z,80.72
2023-02-13T05:36:48.761Z,80.72
2023-02-13T05:37:48.735Z,80.72
2023-02-13T05:38:48.728Z,80.68
2023-02-13T05:39:49.633Z,80.99
2023-02-13T05:40:48.704Z,81.02
2023-02-13T05:41:48.696Z,80.92
2023-02-13T05:42:48.676Z,80.88
2023-02-13T05:43:48.666Z,81.13
2023-02-13T05:44:48.668Z,80.47
2023-02-13T05:45:48.679Z,80.41
2023-02-13T05:46:48.662Z,80.41
2023-02-13T05:47:48.624Z,80.58
2023-02-13T05:48:48.611Z,80.27
2023-02-13T05:49:48.630Z,80.78
2023-02-13T05:50:48.610Z,80.88
2023-02-13T05:51:48.592Z,80.27
2023-02-13T05:52:48.613Z,79.96
2023-02-13T05:53:48.560Z,79.96
2023-02-13T05:54:48.596Z,80.21
2023-02-13T05:55:48.553Z,80.07
2023-02-13T05:56:48.562Z,80.07
2023-02-13T05:57:48.522Z,80.07
2023-02-13T05:58:48.511Z,80.17
2023-02-13T05:59:48.525Z,80.17
2023-02-13T06:00:48.492Z,80.07
2023-02-13T06:01:48.516Z,79.75
2023-02-13T06:02:48.508Z,79.96
2023-02-13T06:03:48.537Z,79.96
2023-02-13T06:04:48.431Z,79.66
2023-02-13T06:05:48.454Z,79.66
2023-02-13T06:06:48.426Z,79.38
2023-02-13T06:07:48.404Z,79.59
2023-02-13T06:08:48.393Z,79.08
2023-02-13T06:09:48.421Z,79.28
2023-02-13T06:10:48.376Z,79.35
2023-02-13T06:11:48.408Z,79.28
2023-02-13T06:12:48.364Z,79.08
2023-02-13T06:13:48.360Z,79.08
2023-02-13T06:14:48.347Z,78.97
2023-02-13T06:15:48.390Z,78.97
2023-02-13T06:16:48.334Z,78.97
2023-02-13T06:17:48.303Z,78.87
2023-02-13T06:18:48.294Z,79.08
2023-02-13T06:19:48.286Z,78.74
2023-02-13T06:20:48.266Z,78.42
2023-02-13T06:21:48.303Z,78.12
2023-02-13T06:22:48.274Z,78.42
2023-02-13T06:23:48.249Z,78.63
2023-02-13T06:24:48.232Z,78.12
2023-02-13T06:25:48.217Z,78.12
2023-02-13T06:26:48.219Z,78.53
2023-02-13T06:27:48.191Z,78.32
2023-02-13T06:28:48.182Z,78.67
2023-02-13T06:29:48.173Z,78.02
2023-02-13T06:30:48.272Z,78.53
2023-02-13T06:31:48.302Z,78.53
2023-02-13T06:32:48.135Z,78.02
2023-02-13T06:33:48.165Z,78.02
2023-02-13T06:34:48.113Z,78.22
2023-02-13T06:35:48.104Z,78.53
2023-02-13T06:36:48.139Z,78.67
2023-02-13T06:37:48.108Z,78.32
2023-02-13T06:38:48.083Z,78.12
2023-02-13T06:39:48.058Z,78.63
2023-02-13T06:40:48.063Z,78.42
2023-02-13T06:41:48.054Z,78.42
2023-02-13T06:42:48.061Z,78.22
2023-02-13T06:44:09.718Z,78.67
2023-02-13T06:44:48.065Z,78.94
2023-02-13T06:45:48.006Z,78.46
2023-02-13T06:46:48.047Z,78.63
2023-02-13T06:47:48.014Z,79.18
2023-02-13T06:48:47.970Z,79.14
2023-02-13T06:49:47.958Z,78.97
2023-02-13T06:50:47.948Z,78.94
2023-02-13T06:51:47.930Z,78.67
2023-02-13T06:52:47.945Z,78.36
2023-02-13T06:53:47.961Z,78.77
2023-02-13T06:54:48.349Z,78.63
2023-02-13T06:55:47.886Z,79.08
2023-02-13T06:56:47.880Z,78.97
2023-02-13T06:57:47.863Z,78.67
2023-02-13T06:58:47.901Z,78.67
2023-02-13T06:59:47.845Z,79.38
2023-02-13T07:00:47.927Z,79.38
2023-02-13T07:01:47.827Z,79.28
2023-02-13T07:02:47.833Z,79.38
2023-02-13T07:03:47.817Z,79.80
2023-02-13T07:04:47.819Z,79.80
2023-02-13T07:05:47.788Z,79.66
2023-02-13T07:06:47.805Z,79.86
2023-02-13T07:07:47.763Z,79.75
2023-02-13T07:08:47.757Z,79.75
2023-02-13T07:09:47.754Z,79.96
2023-02-13T07:10:47.745Z,79.96
2023-02-13T07:11:47.719Z,79.66
2023-02-13T07:13:03.740Z,80.58
2023-02-13T07:13:48.752Z,80.17
2023-02-13T07:14:47.720Z,79.90
2023-02-13T07:15:47.720Z,80.51
2023-02-13T07:16:47.676Z,80.41
2023-02-13T07:17:47.660Z,80.51
2023-02-13T07:18:47.653Z,80.51
2023-02-13T07:19:47.635Z,80.78
2023-02-13T07:20:47.674Z,80.99
2023-02-13T07:21:47.608Z,80.99
2023-02-13T07:22:47.609Z,81.09
2023-02-13T07:23:47.584Z,81.81
2023-02-13T07:24:47.623Z,82.08
2023-02-13T07:25:47.616Z,81.87
2023-02-13T07:26:47.581Z,81.12
2023-02-13T07:27:47.554Z,81.15
2023-02-13T07:28:47.544Z,79.93
2023-02-13T07:29:47.568Z,80.81
2023-02-13T07:30:47.637Z,80.81
2023-02-13T07:31:47.652Z,80.71
2023-02-13T07:32:47.504Z,80.91
2023-02-13T07:33:47.476Z,80.81
2023-02-13T07:35:00.928Z,80.09
2023-02-13T07:35:48.495Z,79.17
2023-02-13T07:36:47.451Z,78.86
2023-02-13T07:37:47.448Z,78.97
2023-02-13T07:38:47.434Z,79.00
2023-02-13T07:39:47.417Z,78.80
2023-02-13T07:40:47.438Z,78.90
2023-02-13T07:41:47.456Z,79.00
2023-02-13T07:42:47.386Z,79.52
2023-02-13T07:43:47.379Z,80.37
2023-02-13T07:44:47.365Z,80.27
2023-02-13T07:45:47.365Z,80.27
2023-02-13T07:46:47.424Z,80.27
2023-02-13T07:47:47.381Z,80.17
2023-02-13T07:48:47.326Z,79.96
2023-02-13T07:49:47.355Z,80.07
2023-02-13T07:50:47.307Z,79.93
2023-02-13T07:51:47.302Z,80.27
2023-02-13T07:52:47.314Z,80.07
2023-02-13T07:53:47.351Z,79.93
2023-02-13T07:54:47.809Z,80.47
2023-02-13T07:55:47.258Z,80.33
2023-02-13T07:56:47.253Z,80.13
2023-02-13T07:57:47.288Z,80.23
2023-02-13T07:58:47.227Z,80.13
2023-02-13T07:59:47.211Z,80.13
2023-02-13T08:00:47.198Z,80.03
2023-02-13T08:01:47.323Z,80.13
2023-02-13T08:02:47.190Z,80.44
2023-02-13T08:03:47.211Z,80.54
2023-02-13T08:04:47.157Z,80.23
2023-02-13T08:05:47.140Z,80.33
2023-02-13T08:06:47.129Z,80.54
2023-02-13T08:07:47.125Z,80.54
2023-02-13T08:08:47.109Z,79.79
2023-02-13T08:09:47.139Z,78.90
2023-02-13T08:10:47.086Z,79.21
2023-02-13T08:11:47.077Z,79.31
2023-02-13T08:12:47.069Z,79.11
2023-02-13T08:13:47.100Z,78.80
2023-02-13T08:14:47.052Z,79.93
2023-02-13T08:15:47.031Z,80.58
2023-02-13T08:16:47.084Z,80.17
2023-02-13T08:17:47.047Z,80.03
2023-02-13T08:18:47.721Z,79.96
2023-02-13T08:19:47.001Z,80.23
2023-02-13T08:20:46.996Z,80.03
2023-02-13T08:21:46.964Z,80.23
2023-02-13T08:22:46.997Z,80.23
2023-02-13T08:23:47.028Z,80.13
2023-02-13T08:24:46.933Z,80.03
2023-02-13T08:25:46.948Z,80.54
2023-02-13T08:26:47.624Z,80.54
2023-02-13T08:27:46.894Z,80.64
2023-02-13T08:28:46.884Z,79.79
2023-02-13T08:29:47.084Z,79.99
2023-02-13T08:30:46.948Z,79.62
2023-02-13T08:31:46.918Z,79.00
2023-02-13T08:32:54.237Z,79.21
2023-02-13T08:33:48.019Z,78.90
2023-02-13T08:34:46.877Z,79.31
2023-02-13T08:35:46.807Z,79.21
2023-02-13T08:36:46.799Z,79.62
2023-02-13T08:37:47.717Z,79.62
2023-02-13T08:38:46.785Z,79.62
2023-02-13T08:39:46.785Z,79.11
2023-02-13T08:40:46.907Z,79.68
2023-02-13T08:41:46.792Z,79.41
2023-02-13T08:42:46.753Z,79.82
2023-02-13T08:43:46.736Z,79.62
2023-02-13T08:44:46.722Z,79.82
2023-02-13T08:45:46.843Z,80.13
2023-02-13T08:46:46.691Z,80.13
2023-02-13T08:47:46.692Z,79.82
2023-02-13T08:48:46.683Z,80.03
2023-02-13T08:49:46.690Z,80.23
2023-02-13T08:50:46.649Z,80.03
2023-02-13T08:51:46.656Z,79.93
2023-02-13T08:52:46.699Z,80.54
2023-02-13T08:53:46.669Z,80.44
2023-02-13T08:54:46.623Z,80.33
2023-02-13T08:55:46.626Z,80.03
2023-02-13T08:56:46.615Z,79.93
2023-02-13T08:57:46.580Z,80.03
2023-02-13T08:58:46.616Z,80.09
2023-02-13T08:59:46.576Z,80.33
2023-02-13T09:00:46.545Z,80.54
2023-02-13T09:01:46.579Z,79.52
2023-02-13T09:02:46.555Z,79.82
2023-02-13T09:03:47.125Z,79.82
2023-02-13T09:04:46.495Z,79.62
2023-02-13T09:05:46.540Z,80.03
2023-02-13T09:06:47.397Z,80.23
2023-02-13T09:07:46.490Z,80.03
2023-02-13T09:08:46.461Z,80.33
2023-02-13T09:09:46.449Z,80.03
2023-02-13T09:10:46.440Z,80.13
2023-02-13T09:11:46.436Z,80.44
2023-02-13T09:12:46.436Z,80.23
2023-02-13T09:13:47.181Z,80.03
2023-02-13T09:14:46.388Z,80.13
2023-02-13T09:15:46.384Z,79.89
2023-02-13T09:16:46.390Z,79.99
2023-02-13T09:17:46.380Z,80.19
2023-02-13T09:18:46.375Z,79.99
2023-02-13T09:19:46.346Z,80.51
2023-02-13T09:20:46.514Z,79.89
2023-02-13T09:21:46.330Z,80.13
2023-02-13T09:22:46.311Z,80.81
2023-02-13T09:23:46.330Z,80.44
2023-02-13T09:24:46.286Z,80.95
2023-02-13T09:25:46.302Z,80.85
2023-02-13T09:26:46.279Z,81.26
2023-02-13T09:27:46.258Z,81.26
2023-02-13T09:28:46.363Z,81.98
2023-02-13T09:29:46.268Z,81.77
2023-02-13T09:30:46.271Z,81.43
2023-02-13T09:31:46.340Z,81.36
2023-02-13T09:32:46.211Z,82.08
2023-02-13T09:33:48.096Z,82.08
2023-02-13T09:34:46.243Z,82.28
2023-02-13T09:35:46.205Z,82.18
2023-02-13T09:36:46.195Z,82.18
2023-02-13T09:37:46.236Z,82.73
2023-02-13T09:38:46.160Z,83.34
2023-02-13T09:39:46.157Z,83.45
2023-02-13T09:40:46.160Z,84.31
2023-02-13T09:41:46.132Z,84.41
2023-02-13T09:42:46.105Z,84.31
2023-02-13T09:43:46.167Z,84.31
2023-02-13T09:44:46.092Z,84.31
2023-02-13T09:45:46.079Z,84.72
2023-02-13T09:46:46.203Z,85.30
2023-02-13T09:47:46.069Z,85.39
2023-02-13T09:48:46.073Z,85.19
2023-02-13T09:49:46.061Z,85.30
2023-02-13T09:50:46.356Z,85.30
2023-02-13T09:51:46.049Z,85.30
2023-02-13T09:52:46.007Z,85.30
2023-02-13T09:53:45.982Z,85.25
2023-02-13T09:54:46.040Z,85.25
2023-02-13T09:55:45.977Z,85.25
2023-02-13T09:56:45.954Z,85.25
2023-02-13T09:57:45.994Z,85.25
2023-02-13T09:58:45.944Z,85.09
2023-02-13T09:59:45.934Z,85.46
2023-02-13T10:00:46.912Z,86.01
2023-02-13T10:01:46.833Z,85.71
2023-02-13T10:02:45.898Z,86.73
2023-02-13T10:03:45.878Z,86.48
2023-02-13T10:04:45.886Z,86.58
2023-02-13T10:05:45.904Z,86.58
2023-02-13T10:06:45.854Z,86.90
2023-02-13T10:07:45.834Z,85.46
2023-02-13T10:08:45.818Z,85.71
2023-02-13T10:09:45.849Z,85.80
2023-02-13T10:10:45.812Z,86.22
2023-02-13T10:11:45.789Z,86.22
2023-02-13T10:12:45.783Z,85.91
2023-02-13T10:13:45.822Z,86.58
2023-02-13T10:14:45.811Z,86.69
2023-02-13T10:15:45.961Z,85.77
2023-02-13T10:16:45.742Z,85.77
2023-02-13T10:17:45.756Z,85.97
2023-02-13T10:18:46.668Z,85.77
2023-02-13T10:19:45.752Z,85.97
2023-02-13T10:20:45.692Z,85.77
2023-02-13T10:21:45.716Z,85.36
2023-02-13T10:22:45.692Z,85.97
2023-02-13T10:23:45.667Z,86.79
2023-02-13T10:24:45.692Z,86.58
2023-02-13T10:25:45.663Z,86.58
2023-02-13T10:26:45.767Z,86.38
2023-02-13T10:27:45.659Z,86.99
2023-02-13T10:28:45.791Z,86.07
2023-02-13T10:29:45.635Z,86.85
2023-02-13T10:30:45.684Z,86.58
2023-02-13T10:31:45.724Z,86.58
2023-02-13T10:32:45.602Z,86.44
2023-02-13T10:33:45.605Z,86.55
2023-02-13T10:34:45.587Z,86.34
2023-02-13T10:35:45.560Z,86.85
2023-02-13T10:36:45.561Z,86.14
2023-02-13T10:37:45.528Z,85.31
2023-02-13T10:38:45.508Z,85.69
2023-02-13T10:39:45.510Z,85.58
2023-02-13T10:40:45.481Z,85.48
2023-02-13T10:41:45.482Z,85.48
2023-02-13T10:42:45.501Z,85.28
2023-02-13T10:43:45.461Z,84.97
2023-02-13T10:44:45.433Z,85.17
2023-02-13T10:45:45.449Z,85.38
2023-02-13T10:46:45.478Z,85.48
2023-02-13T10:47:45.516Z,84.46
2023-02-13T10:48:45.405Z,85.48
2023-02-13T10:49:45.393Z,85.38
2023-02-13T10:50:45.389Z,84.77
2023-02-13T10:51:45.363Z,85.42
2023-02-13T10:52:45.396Z,84.80
2023-02-13T10:53:45.351Z,84.25
2023-02-13T10:54:45.339Z,84.05
2023-02-13T10:55:45.319Z,84.50
2023-02-13T10:56:45.312Z,84.50
2023-02-13T10:57:45.318Z,85.07
2023-02-13T10:58:45.321Z,84.66
2023-02-13T10:59:45.288Z,84.25
2023-02-13T11:00:45.277Z,84.15
2023-02-13T11:01:45.328Z,84.15
2023-02-13T11:02:45.288Z,84.56
2023-02-13T11:03:45.256Z,83.54
2023-02-13T11:04:45.245Z,83.95
2023-02-13T11:05:45.224Z,84.05
2023-02-13T11:06:45.228Z,84.25
2023-02-13T11:07:45.196Z,83.54
2023-02-13T11:08:45.197Z,82.92
2023-02-13T11:09:45.179Z,83.54
2023-02-13T11:10:45.161Z,83.60
2023-02-13T11:11:45.225Z,82.89
2023-02-13T11:12:45.156Z,82.98
2023-02-13T11:13:45.128Z,82.89
2023-02-13T11:14:45.128Z,82.68
2023-02-13T11:15:45.171Z,83.19
2023-02-13T11:16:46.873Z,83.29
2023-02-13T11:17:45.672Z,82.37
2023-02-13T11:18:45.083Z,82.27
2023-02-13T11:19:45.138Z,81.86
2023-02-13T11:20:45.060Z,82.07
2023-02-13T11:21:45.132Z,81.86
2023-02-13T11:22:45.125Z,82.07
2023-02-13T11:23:45.127Z,81.72
2023-02-13T11:24:45.151Z,81.41
2023-02-13T11:25:45.027Z,80.90
2023-02-13T11:26:45.190Z,80.90
2023-02-13T11:27:45.045Z,80.49
2023-02-13T11:28:45.079Z,80.69
2023-02-13T11:29:45.003Z,80.90
2023-02-13T11:30:45.019Z,80.90
2023-02-13T11:31:45.176Z,80.39
2023-02-13T11:32:44.957Z,80.60
2023-02-13T11:33:44.948Z,80.80
2023-02-13T11:34:44.937Z,80.08
2023-02-13T11:35:45.175Z,80.08
2023-02-13T11:36:44.949Z,80.08
2023-02-13T11:37:44.894Z,79.68
2023-02-13T11:38:44.886Z,78.96
2023-02-13T11:39:45.676Z,79.27
2023-02-13T11:40:44.882Z,79.37
2023-02-13T11:41:44.893Z,79.57
2023-02-13T11:42:44.865Z,79.47
2023-02-13T11:43:44.833Z,79.16
2023-02-13T11:44:44.816Z,78.65
2023-02-13T11:45:44.806Z,78.04
2023-02-13T11:46:45.028Z,78.45
2023-02-13T11:47:44.835Z,78.34
2023-02-13T11:48:44.764Z,78.34
2023-02-13T11:49:44.762Z,78.14
2023-02-13T11:50:44.763Z,78.14
2023-02-13T11:51:45.683Z,78.14
2023-02-13T11:52:44.796Z,77.94
2023-02-13T11:53:44.720Z,78.45
2023-02-13T11:54:44.680Z,77.94
2023-02-13T11:55:44.694Z,78.24
2023-02-13T11:57:03.322Z,78.34
2023-02-13T11:57:45.685Z,78.24
2023-02-13T11:58:44.737Z,78.45
2023-02-13T11:59:44.638Z,78.75
2023-02-13T12:00:44.632Z,78.45
2023-02-13T12:01:44.641Z,78.04
2023-02-13T12:02:44.681Z,78.34
2023-02-13T12:03:44.678Z,77.53
2023-02-13T12:04:44.592Z,78.04
2023-02-13T12:05:44.587Z,77.83
2023-02-13T12:06:44.574Z,77.94
2023-02-13T12:07:44.564Z,78.34
2023-02-13T12:08:44.587Z,78.14
2023-02-13T12:09:44.551Z,77.63
2023-02-13T12:10:44.549Z,77.42
2023-02-13T12:11:44.535Z,77.01
2023-02-13T12:12:44.489Z,77.63
2023-02-13T12:13:44.533Z,77.73
2023-02-13T12:14:44.500Z,77.94
2023-02-13T12:15:44.508Z,77.53
2023-02-13T12:16:44.533Z,77.94
2023-02-13T12:17:44.451Z,77.83
2023-02-13T12:18:44.553Z,77.94
2023-02-13T12:19:45.299Z,77.12
2023-02-13T12:20:44.463Z,77.32
2023-02-13T12:21:44.437Z,77.73
2023-02-13T12:22:44.417Z,77.32
2023-02-13T12:23:44.409Z,77.53
2023-02-13T12:24:44.415Z,77.42
2023-02-13T12:25:44.368Z,77.42
2023-02-13T12:26:44.784Z,76.61
2023-02-13T12:27:44.424Z,76.54
2023-02-13T12:28:44.464Z,77.15
2023-02-13T12:29:44.337Z,78.08
2023-02-13T12:30:44.324Z,77.76
2023-02-13T12:31:44.429Z,77.26
2023-02-13T12:32:44.349Z,77.15
2023-02-13T12:33:44.291Z,77.15
2023-02-13T12:34:44.263Z,77.67
2023-02-13T12:35:44.259Z,75.93
2023-02-13T12:36:44.245Z,76.13
2023-02-13T12:37:44.273Z,77.15
2023-02-13T12:38:44.512Z,77.15
2023-02-13T12:39:44.206Z,76.95
2023-02-13T12:40:44.212Z,76.95
2023-02-13T12:41:44.192Z,77.05
2023-02-13T12:42:44.190Z,77.46
2023-02-13T12:43:44.194Z,77.22
2023-02-13T12:44:44.222Z,76.61
2023-02-13T12:45:44.208Z,76.30
2023-02-13T12:46:44.133Z,75.99
2023-02-13T12:47:44.134Z,76.30
2023-02-13T12:48:44.125Z,76.30
2023-02-13T12:49:44.138Z,76.61
2023-02-13T12:50:44.117Z,76.30
2023-02-13T12:51:44.115Z,76.50
2023-02-13T12:52:44.139Z,76.09
2023-02-13T12:53:44.079Z,75.99
2023-02-13T12:54:44.057Z,76.20
2023-02-13T12:55:44.041Z,76.37
2023-02-13T12:56:44.020Z,75.85
2023-02-13T12:57:44.010Z,75.59
2023-02-13T12:58:44.016Z,75.55
2023-02-13T12:59:44.029Z,75.65
2023-02-13T13:00:44.021Z,75.59
2023-02-13T13:01:43.987Z,75.48
2023-02-13T13:02:44.012Z,75.59
2023-02-13T13:03:43.954Z,75.27
2023-02-13T13:04:44.010Z,75.59
2023-02-13T13:05:45.206Z,75.59
2023-02-13T13:06:44.009Z,75.27
2023-02-13T13:07:43.912Z,75.48